Time;durP1;ratioP1;P1;durP2;ratioP2;P2;SDS_P1;SDS_P2;PMS_P1;PMS_P2;Temp;Humidity;BMP_temperature;BMP_pressure;BME280_temperature;BME280_humidity;BME280_pressure;Samples;Min_cycle;Max_cycle;Signal;HPM_P1;HPM_P2
2023/12/19 00:01:46;;;;;;;12.52;8.70;;;9.60;81.50;;;;;;4979013;28;20121;-79
2023/12/19 00:04:13;;;;;;;12.63;8.85;;;9.50;80.80;;;;;;4996154;28;20022;-79
2023/12/19 00:06:39;;;;;;;10.30;8.30;;;9.50;80.80;;;;;;4995955;28;20109;-77
2023/12/19 00:09:05;;;;;;;10.55;7.95;;;9.60;80.90;;;;;;4995277;28;20448;-78
2023/12/19 00:11:30;;;;;;;11.00;8.50;;;9.50;80.80;;;;;;4978531;28;20058;-77
2023/12/19 00:13:56;;;;;;;12.02;8.70;;;9.50;80.80;;;;;;4994927;28;20046;-78
2023/12/19 00:16:22;;;;;;;10.98;8.05;;;9.60;80.90;;;;;;4994958;28;20479;-77
2023/12/19 00:18:48;;;;;;;11.35;8.48;;;9.50;80.80;;;;;;4979002;28;20031;-79
2023/12/19 00:21:14;;;;;;;10.82;8.25;;;9.50;80.90;;;;;;4978646;28;20510;-78
2023/12/19 00:23:40;;;;;;;10.00;8.32;;;9.50;80.80;;;;;;4978908;28;20506;-79
2023/12/19 00:26:05;;;;;;;11.77;8.55;;;9.50;80.80;;;;;;4978300;28;20035;-79
2023/12/19 00:28:31;;;;;;;11.48;8.32;;;9.50;80.80;;;;;;4979121;28;20042;-79
2023/12/19 00:30:58;;;;;;;11.65;8.70;;;9.50;80.90;;;;;;4978506;28;20035;-78
2023/12/19 00:33:23;;;;;;;11.73;8.25;;;9.50;80.80;;;;;;4978430;28;20034;-77
2023/12/19 00:35:50;;;;;;;11.10;8.32;;;9.50;80.90;;;;;;4979124;28;20534;-78
2023/12/19 00:38:15;;;;;;;12.48;8.57;;;9.50;80.80;;;;;;4978449;28;20034;-79
2023/12/19 00:40:41;;;;;;;11.98;8.90;;;9.50;80.80;;;;;;4994533;28;20506;-79
2023/12/19 00:43:07;;;;;;;11.48;8.65;;;9.50;80.90;;;;;;4994450;28;20076;-78
2023/12/19 00:45:33;;;;;;;12.10;8.52;;;9.50;80.90;;;;;;4978479;28;20034;-79
2023/12/19 00:47:59;;;;;;;11.38;8.02;;;9.50;80.90;;;;;;4994552;28;20041;-78
2023/12/19 00:50:25;;;;;;;11.13;8.07;;;9.50;80.90;;;;;;4978830;28;20383;-78
2023/12/19 00:52:50;;;;;;;11.32;8.27;;;9.50;80.90;;;;;;4994419;28;20030;-79
2023/12/19 00:55:16;;;;;;;11.40;8.48;;;9.50;80.90;;;;;;4978542;28;20046;-79
2023/12/19 00:57:42;;;;;;;11.70;8.20;;;9.50;80.90;;;;;;4978055;28;20038;-78
2023/12/19 01:00:08;;;;;;;10.40;8.30;;;9.50;80.90;;;;;;4994140;28;20043;-79
2023/12/19 01:02:34;;;;;;;11.82;8.80;;;9.50;80.90;;;;;;4978110;28;20030;-79
2023/12/19 01:05:00;;;;;;;10.52;8.00;;;9.50;80.90;;;;;;4962296;28;20034;-79
2023/12/19 01:07:26;;;;;;;10.20;7.72;;;9.50;80.90;;;;;;4993896;28;20164;-80
2023/12/19 01:09:52;;;;;;;10.40;7.10;;;9.50;80.90;;;;;;4994008;28;20060;-79
2023/12/19 01:12:18;;;;;;;10.25;7.80;;;9.50;80.90;;;;;;4993935;28;20105;-78
2023/12/19 01:14:44;;;;;;;12.15;8.35;;;9.50;80.90;;;;;;4977502;28;20126;-79
2023/12/19 01:17:10;;;;;;;10.95;7.57;;;9.50;80.90;;;;;;4977318;28;20068;-79
2023/12/19 01:19:37;;;;;;;10.65;7.72;;;9.50;80.90;;;;;;4994703;28;20030;-79
2023/12/19 01:22:03;;;;;;;11.35;8.65;;;9.50;80.90;;;;;;4994161;28;20113;-80
2023/12/19 01:24:29;;;;;;;11.18;8.65;;;9.50;80.90;;;;;;4977957;28;20022;-78
2023/12/19 01:26:55;;;;;;;10.88;7.82;;;9.50;80.90;;;;;;4977585;28;20390;-78
2023/12/19 01:29:22;;;;;;;11.15;8.00;;;9.50;80.90;;;;;;4993699;28;20125;-78
2023/12/19 01:31:48;;;;;;;11.35;8.15;;;9.50;80.90;;;;;;4995011;28;20026;-78
2023/12/19 01:34:14;;;;;;;11.32;8.20;;;9.50;80.90;;;;;;4993561;28;20030;-78
2023/12/19 01:36:41;;;;;;;10.48;7.47;;;9.50;80.90;;;;;;4977850;28;20125;-78
2023/12/19 01:39:08;;;;;;;10.30;7.68;;;9.50;80.90;;;;;;4978306;28;20031;-77
2023/12/19 01:41:34;;;;;;;11.30;8.60;;;9.50;80.90;;;;;;4977387;28;20434;-78
2023/12/19 01:44:00;;;;;;;12.40;8.50;;;9.50;80.90;;;;;;4977782;28;20196;-78
2023/12/19 01:46:26;;;;;;;11.35;8.43;;;9.50;80.90;;;;;;4993066;28;20475;-77
2023/12/19 01:48:52;;;;;;;11.18;7.50;;;9.50;80.90;;;;;;4961758;28;20081;-77
2023/12/19 01:51:18;;;;;;;10.38;7.55;;;9.50;80.90;;;;;;4993559;28;20042;-77
2023/12/19 01:53:45;;;;;;;13.55;9.00;;;9.50;80.90;;;;;;4977286;28;20111;-78
2023/12/19 01:56:12;;;;;;;10.25;7.80;;;9.50;80.90;;;;;;4993580;28;20115;-78
2023/12/19 01:58:38;;;;;;;10.57;7.88;;;9.50;81.00;;;;;;4994115;28;20463;-78
2023/12/19 02:01:06;;;;;;;13.23;8.45;;;9.50;80.90;;;;;;4992803;28;20058;-78
2023/12/19 02:03:32;;;;;;;10.02;7.72;;;9.50;80.90;;;;;;4994471;28;20459;-78
2023/12/19 02:05:59;;;;;;;10.00;7.88;;;9.50;80.90;;;;;;4976683;28;20019;-77
2023/12/19 02:08:27;;;;;;;10.15;7.90;;;9.50;81.00;;;;;;4976907;28;20068;-78
2023/12/19 02:10:53;;;;;;;10.95;8.13;;;9.50;81.00;;;;;;4976706;28;20105;-78
2023/12/19 02:13:21;;;;;;;10.98;7.72;;;9.50;81.00;;;;;;4993219;28;20109;-78
2023/12/19 02:15:51;;;;;;;12.23;8.77;;;9.50;81.00;;;;;;4992772;28;20039;-78
2023/12/19 02:18:19;;;;;;;11.40;8.23;;;9.50;81.00;;;;;;4992843;28;20109;-78
2023/12/19 02:20:45;;;;;;;10.73;7.15;;;9.50;81.00;;;;;;4993190;28;20034;-79
2023/12/19 02:23:15;;;;;;;10.95;7.93;;;9.50;81.00;;;;;;4992715;28;20033;-78
2023/12/19 02:25:41;;;;;;;10.48;7.80;;;9.50;81.00;;;;;;4996218;28;20120;-79
2023/12/19 02:28:07;;;;;;;10.00;7.47;;;9.50;81.00;;;;;;4980985;28;20037;-78
2023/12/19 02:30:36;;;;;;;10.70;8.05;;;9.50;81.00;;;;;;4996850;28;20161;-79
2023/12/19 02:33:03;;;;;;;9.48;7.50;;;9.50;81.00;;;;;;4998124;28;20026;-79
2023/12/19 02:35:29;;;;;;;11.90;7.93;;;9.50;81.00;;;;;;4980593;28;20030;-78
2023/12/19 02:37:55;;;;;;;10.25;7.28;;;9.50;81.00;;;;;;4996746;28;20033;-78
2023/12/19 02:40:21;;;;;;;10.18;7.75;;;9.50;81.00;;;;;;4980913;28;20038;-79
2023/12/19 02:42:47;;;;;;;11.25;8.15;;;9.50;81.00;;;;;;4980611;28;20031;-79
2023/12/19 02:45:13;;;;;;;10.98;7.72;;;9.50;81.00;;;;;;4996695;28;20443;-79
2023/12/19 02:47:39;;;;;;;11.23;7.57;;;9.50;81.00;;;;;;4997846;28;20026;-78
2023/12/19 02:50:06;;;;;;;10.40;7.65;;;9.50;80.90;;;;;;4979974;28;20030;-77
2023/12/19 02:52:32;;;;;;;11.13;7.60;;;9.50;81.00;;;;;;4980963;28;20030;-77
2023/12/19 02:54:57;;;;;;;10.00;7.30;;;9.50;80.90;;;;;;4980528;28;20089;-78
2023/12/19 02:57:23;;;;;;;11.05;8.23;;;9.50;81.00;;;;;;4980116;28;20487;-78
2023/12/19 02:59:49;;;;;;;10.18;7.75;;;9.50;80.90;;;;;;4980865;28;20133;-78
2023/12/19 03:02:14;;;;;;;9.90;7.10;;;9.50;80.90;;;;;;4980130;28;20046;-78
2023/12/19 03:04:41;;;;;;;11.10;8.10;;;9.50;80.90;;;;;;4979975;28;20038;-78
2023/12/19 03:07:07;;;;;;;10.15;7.70;;;9.50;80.90;;;;;;4979758;28;20030;-79
2023/12/19 03:09:33;;;;;;;10.77;7.57;;;9.50;81.00;;;;;;4995955;28;20031;-78
2023/12/19 03:12:03;;;;;;;9.52;6.90;;;9.50;81.00;;;;;;4980284;28;20066;-78
2023/12/19 03:14:36;;;;;;;10.23;7.78;;;9.50;81.60;;;;;;4979744;28;20030;-79
2023/12/19 03:17:03;;;;;;;11.38;7.60;;;9.50;81.00;;;;;;4979961;28;20030;-78
2023/12/19 03:19:29;;;;;;;9.88;7.00;;;9.50;81.00;;;;;;4980140;28;20039;-79
2023/12/19 03:21:55;;;;;;;9.07;6.55;;;9.50;81.00;;;;;;4979687;28;20030;-78
2023/12/19 03:24:22;;;;;;;10.70;7.75;;;9.50;81.00;;;;;;4979487;28;20026;-78
2023/12/19 03:26:48;;;;;;;10.50;7.45;;;9.50;81.00;;;;;;4979153;28;20038;-79
2023/12/19 03:29:13;;;;;;;10.02;7.55;;;9.50;81.00;;;;;;4979663;28;20029;-78
2023/12/19 03:31:39;;;;;;;9.82;7.15;;;9.50;81.00;;;;;;4979322;28;20475;-78
2023/12/19 03:34:05;;;;;;;9.68;7.38;;;9.50;81.00;;;;;;4996570;28;20049;-77
2023/12/19 03:36:31;;;;;;;11.02;8.05;;;9.50;81.00;;;;;;4995067;28;20031;-78
2023/12/19 03:38:56;;;;;;;11.07;7.82;;;9.50;81.60;;;;;;4979598;28;20061;-78
2023/12/19 03:41:22;;;;;;;11.10;8.13;;;9.50;81.00;;;;;;4979493;28;20435;-78
2023/12/19 03:43:48;;;;;;;12.32;8.20;;;9.50;81.00;;;;;;4995733;28;20487;-78
2023/12/19 03:46:14;;;;;;;9.45;7.18;;;9.50;81.00;;;;;;4995763;28;20129;-78
2023/12/19 03:48:44;;;;;;;10.85;7.78;;;9.50;81.00;;;;;;4979483;28;20100;-78
2023/12/19 03:51:10;;;;;;;10.90;7.65;;;9.50;81.00;;;;;;4996277;28;20049;-78
2023/12/19 03:53:36;;;;;;;9.82;7.60;;;9.50;81.00;;;;;;4978989;28;20491;-78
2023/12/19 03:56:02;;;;;;;10.48;7.97;;;9.50;81.00;;;;;;4979092;28;20065;-78
2023/12/19 03:58:28;;;;;;;10.75;7.47;;;9.50;81.00;;;;;;4978759;28;20026;-77
2023/12/19 04:00:54;;;;;;;11.13;7.50;;;9.50;81.00;;;;;;4979132;28;20345;-75
2023/12/19 04:03:19;;;;;;;10.18;7.32;;;9.50;81.00;;;;;;4994507;28;20074;-76
2023/12/19 04:05:45;;;;;;;10.05;7.68;;;9.60;81.70;;;;;;4995643;28;20464;-78
2023/12/19 04:08:11;;;;;;;9.98;7.07;;;9.50;81.00;;;;;;4979202;28;20483;-77
2023/12/19 04:10:37;;;;;;;8.95;7.07;;;9.50;81.00;;;;;;4994405;28;20082;-76
2023/12/19 04:13:03;;;;;;;9.40;7.47;;;9.50;81.00;;;;;;4978825;28;20026;-77
2023/12/19 04:15:30;;;;;;;9.52;7.00;;;9.50;81.00;;;;;;4978887;28;20022;-78
2023/12/19 04:17:55;;;;;;;10.75;7.25;;;9.60;81.10;;;;;;4978660;28;20523;-78
2023/12/19 04:20:21;;;;;;;10.82;7.65;;;9.50;81.00;;;;;;4979125;28;20125;-77
2023/12/19 04:22:47;;;;;;;9.20;6.72;;;9.50;81.00;;;;;;4978622;28;20045;-77
2023/12/19 04:25:13;;;;;;;9.45;6.70;;;9.60;81.00;;;;;;4994602;28;20034;-77
2023/12/19 04:27:39;;;;;;;10.05;7.40;;;9.60;81.00;;;;;;4994953;28;20411;-78
2023/12/19 04:30:06;;;;;;;9.02;6.75;;;9.50;81.00;;;;;;4978081;28;20034;-77
2023/12/19 04:32:31;;;;;;;9.07;7.25;;;9.60;81.00;;;;;;4978515;28;20039;-77
2023/12/19 04:34:57;;;;;;;8.25;6.43;;;9.60;81.00;;;;;;4994294;28;20053;-77
2023/12/19 04:37:23;;;;;;;9.30;7.00;;;9.60;81.00;;;;;;4994379;28;20030;-78
2023/12/19 04:39:49;;;;;;;9.23;6.53;;;9.50;81.00;;;;;;4994960;28;20133;-77
2023/12/19 04:42:17;;;;;;;8.88;6.55;;;9.50;81.00;;;;;;4994697;28;20030;-77
2023/12/19 04:44:46;;;;;;;8.43;6.50;;;9.50;81.00;;;;;;4978032;28;20031;-78
2023/12/19 04:47:13;;;;;;;8.40;6.25;;;9.60;81.10;;;;;;4996085;28;20039;-79
2023/12/19 04:49:39;;;;;;;8.57;6.47;;;9.50;81.00;;;;;;4976968;28;20113;-78
2023/12/19 04:52:05;;;;;;;8.25;6.40;;;9.60;81.00;;;;;;4978007;28;20030;-79
2023/12/19 04:54:32;;;;;;;8.77;6.60;;;9.60;81.00;;;;;;4978257;28;20026;-78
2023/12/19 04:56:57;;;;;;;8.65;6.15;;;9.60;81.00;;;;;;4994679;28;20035;-78
2023/12/19 04:59:23;;;;;;;8.30;6.38;;;9.60;81.00;;;;;;4995809;28;20378;-77
2023/12/19 05:01:49;;;;;;;8.93;6.85;;;9.60;81.00;;;;;;4977897;28;20084;-78
2023/12/19 05:04:14;;;;;;;8.48;6.50;;;9.60;81.10;;;;;;4995176;28;20030;-83
2023/12/19 05:06:41;;;;;;;8.15;5.93;;;9.60;81.00;;;;;;4994791;28;20039;-78
2023/12/19 05:09:08;;;;;;;8.15;5.95;;;9.60;81.10;;;;;;4994105;28;20031;-79
2023/12/19 05:11:34;;;;;;;7.63;6.05;;;9.60;81.00;;;;;;4978216;28;20063;-79
2023/12/19 05:14:00;;;;;;;8.45;6.15;;;9.60;81.00;;;;;;4993556;28;20085;-77
2023/12/19 05:16:27;;;;;;;7.78;5.88;;;9.60;81.00;;;;;;4993566;28;20026;-77
2023/12/19 05:18:52;;;;;;;7.20;5.53;;;9.60;81.10;;;;;;4993703;28;20031;-78
2023/12/19 05:21:21;;;;;;;8.43;6.00;;;9.60;81.00;;;;;;4993607;28;20033;-78
2023/12/19 05:23:47;;;;;;;8.82;5.90;;;9.60;81.10;;;;;;4994301;28;20056;-77
2023/12/19 05:26:13;;;;;;;7.13;5.28;;;9.60;81.10;;;;;;4993687;28;20092;-76
2023/12/19 05:28:39;;;;;;;7.57;5.43;;;9.60;81.00;;;;;;4978035;28;20463;-77
2023/12/19 05:31:06;;;;;;;7.40;5.50;;;9.60;81.00;;;;;;4994617;28;20034;-78
2023/12/19 05:33:33;;;;;;;7.20;5.25;;;9.60;81.00;;;;;;4993324;28;20587;-76
2023/12/19 05:35:59;;;;;;;7.50;5.55;;;9.60;81.00;;;;;;4993826;28;20072;-78
2023/12/19 05:38:25;;;;;;;7.50;5.53;;;9.60;81.00;;;;;;4993241;28;20022;-78
2023/12/19 05:40:56;;;;;;;7.07;5.13;;;9.60;81.00;;;;;;4977102;28;20033;-78
2023/12/19 05:43:22;;;;;;;7.38;5.65;;;9.60;81.10;;;;;;4977589;28;20062;-77
2023/12/19 05:45:48;;;;;;;6.78;5.30;;;9.60;81.00;;;;;;4976968;28;20062;-77
2023/12/19 05:48:13;;;;;;;7.85;5.57;;;9.60;81.00;;;;;;4977822;28;20038;-77
2023/12/19 05:50:39;;;;;;;6.68;5.03;;;9.60;81.00;;;;;;4993858;28;20035;-78
2023/12/19 05:53:05;;;;;;;7.30;5.07;;;9.60;81.10;;;;;;4977688;28;20057;-78
2023/12/19 05:55:31;;;;;;;6.63;4.97;;;9.60;81.00;;;;;;4993276;28;20056;-78
2023/12/19 05:57:57;;;;;;;7.68;5.60;;;9.60;81.00;;;;;;4977293;28;20037;-81
2023/12/19 06:00:23;;;;;;;7.28;5.13;;;9.60;81.00;;;;;;4977555;28;20034;-79
2023/12/19 06:02:50;;;;;;;7.97;5.25;;;9.60;81.00;;;;;;4993526;28;20030;-78
2023/12/19 06:05:17;;;;;;;8.05;5.60;;;9.70;81.10;;;;;;4993966;28;20057;-76
2023/12/19 06:07:43;;;;;;;6.97;4.75;;;9.60;81.00;;;;;;4994189;28;20042;-79
2023/12/19 06:10:13;;;;;;;7.00;5.10;;;9.70;81.10;;;;;;4993159;28;20046;-78
2023/12/19 06:12:40;;;;;;;7.20;5.30;;;9.70;81.70;;;;;;4993469;28;20035;-78
2023/12/19 06:15:11;;;;;;;7.30;5.57;;;9.70;81.00;;;;;;4994656;28;20113;-78
2023/12/19 06:17:46;;;;;;;7.47;5.55;;;9.70;81.10;;;;;;4977361;28;20042;-78
2023/12/19 06:20:12;;;;;;;7.60;5.70;;;9.70;81.10;;;;;;4976682;28;20026;-78
2023/12/19 06:22:39;;;;;;;8.10;5.30;;;9.70;81.10;;;;;;4993100;28;20034;-78
2023/12/19 06:25:06;;;;;;;8.60;6.05;;;9.70;81.00;;;;;;4995120;28;20097;-77
2023/12/19 06:27:33;;;;;;;7.03;5.63;;;9.70;81.00;;;;;;4977138;28;20034;-78
2023/12/19 06:29:59;;;;;;;6.85;5.25;;;9.70;81.10;;;;;;4960623;28;20129;-77
2023/12/19 06:32:24;;;;;;;8.02;6.10;;;9.70;81.00;;;;;;4993118;28;20066;-76
2023/12/19 06:34:50;;;;;;;7.43;5.90;;;9.70;81.00;;;;;;4976573;28;20177;-77
2023/12/19 06:37:16;;;;;;;7.07;5.13;;;9.70;81.10;;;;;;4992598;28;20081;-77
2023/12/19 06:39:42;;;;;;;7.70;5.88;;;9.70;81.10;;;;;;4976754;28;20476;-77
2023/12/19 06:42:08;;;;;;;8.13;5.60;;;9.70;81.10;;;;;;4976304;28;20038;-77
2023/12/19 06:44:34;;;;;;;8.00;6.30;;;9.70;81.00;;;;;;4976591;28;20030;-77
2023/12/19 06:46:59;;;;;;;7.40;5.40;;;9.70;81.00;;;;;;4992516;28;20030;-77
2023/12/19 06:49:25;;;;;;;6.32;4.93;;;9.80;81.10;;;;;;4976714;28;20158;-78
2023/12/19 06:51:52;;;;;;;6.97;5.13;;;9.80;81.10;;;;;;4993496;28;20044;-78
2023/12/19 06:54:17;;;;;;;7.15;5.57;;;9.80;81.10;;;;;;4977411;28;20027;-79
2023/12/19 06:56:43;;;;;;;7.38;5.53;;;9.80;81.10;;;;;;4976906;28;20391;-79
2023/12/19 06:59:09;;;;;;;7.65;5.70;;;9.80;81.00;;;;;;4977803;28;20118;-78
2023/12/19 07:01:35;;;;;;;7.28;5.55;;;9.80;81.10;;;;;;4978019;28;20034;-78
2023/12/19 07:04:03;;;;;;;7.10;5.47;;;9.80;81.00;;;;;;4994704;28;20049;-79
2023/12/19 07:06:29;;;;;;;7.32;5.78;;;9.80;81.00;;;;;;4977621;28;20112;-78
2023/12/19 07:08:55;;;;;;;7.50;5.82;;;9.80;81.10;;;;;;4977211;28;20039;-78
2023/12/19 07:11:22;;;;;;;8.13;6.13;;;9.80;81.00;;;;;;4992856;28;20057;-78
2023/12/19 07:13:48;;;;;;;8.13;6.10;;;9.80;81.00;;;;;;4979418;28;20041;-78
2023/12/19 07:16:14;;;;;;;7.50;5.50;;;9.80;81.00;;;;;;4979743;28;20023;-78
2023/12/19 07:18:41;;;;;;;7.78;5.90;;;9.80;81.00;;;;;;4980287;28;20080;-78
2023/12/19 07:21:07;;;;;;;7.05;5.50;;;9.80;81.00;;;;;;4996239;28;20098;-79
2023/12/19 07:23:33;;;;;;;7.30;5.68;;;9.90;81.00;;;;;;4980653;28;20092;-78
2023/12/19 07:25:59;;;;;;;7.63;5.72;;;9.80;81.00;;;;;;4980478;28;20448;-79
2023/12/19 07:28:25;;;;;;;7.93;5.97;;;9.80;80.90;;;;;;4979684;28;20088;-77
2023/12/19 07:30:51;;;;;;;8.32;6.22;;;9.80;80.90;;;;;;4980396;28;20387;-78
2023/12/19 07:33:16;;;;;;;8.48;5.93;;;9.80;80.90;;;;;;4979548;28;20045;-78
2023/12/19 07:35:42;;;;;;;7.88;5.75;;;9.90;81.00;;;;;;4995811;28;20031;-77
2023/12/19 07:38:08;;;;;;;8.07;5.82;;;9.90;81.00;;;;;;4997333;28;20054;-79
2023/12/19 07:40:35;;;;;;;8.40;6.20;;;9.90;81.00;;;;;;4980045;28;20077;-78
2023/12/19 07:43:02;;;;;;;7.57;6.10;;;9.90;81.00;;;;;;4979824;28;20034;-79
2023/12/19 07:45:28;;;;;;;8.20;6.40;;;9.90;81.00;;;;;;4979834;28;20126;-78
2023/12/19 07:47:54;;;;;;;7.93;5.97;;;9.90;81.00;;;;;;4979677;28;20066;-79
2023/12/19 07:50:20;;;;;;;8.60;6.32;;;9.90;80.90;;;;;;4996205;28;20089;-78
2023/12/19 07:52:45;;;;;;;8.05;6.00;;;9.90;81.00;;;;;;4979346;28;20038;-77
2023/12/19 07:55:11;;;;;;;8.52;6.55;;;9.90;80.90;;;;;;4996284;28;20426;-78
2023/12/19 07:57:40;;;;;;;9.10;6.93;;;9.90;80.90;;;;;;4995287;28;20386;-78
2023/12/19 08:00:08;;;;;;;9.57;6.90;;;9.90;80.90;;;;;;4996568;28;20038;-77
2023/12/19 08:02:38;;;;;;;9.63;7.13;;;9.90;80.90;;;;;;4995297;28;20038;-77
2023/12/19 08:05:04;;;;;;;9.55;7.10;;;9.90;80.90;;;;;;4995081;28;20386;-78
2023/12/19 08:07:30;;;;;;;8.63;6.85;;;9.90;80.90;;;;;;4979252;28;20042;-78
2023/12/19 08:09:56;;;;;;;9.25;7.40;;;9.90;80.90;;;;;;4995242;28;20125;-76
2023/12/19 08:12:21;;;;;;;9.25;7.18;;;10.00;80.90;;;;;;4979246;28;20078;-78
2023/12/19 08:14:47;;;;;;;9.13;6.88;;;10.00;80.90;;;;;;4980285;28;20031;-78
2023/12/19 08:17:14;;;;;;;9.27;6.85;;;10.00;80.90;;;;;;4979517;28;20049;-77
2023/12/19 08:19:40;;;;;;;8.70;6.53;;;10.00;80.90;;;;;;4996618;28;20030;-79
2023/12/19 08:22:06;;;;;;;9.70;7.47;;;10.00;80.90;;;;;;4979376;28;20077;-79
2023/12/19 08:24:31;;;;;;;9.25;7.38;;;10.00;80.90;;;;;;4978690;28;20451;-78
2023/12/19 08:26:57;;;;;;;9.63;6.97;;;10.00;80.90;;;;;;4978500;28;20033;-75
2023/12/19 08:29:23;;;;;;;9.98;7.43;;;10.00;80.90;;;;;;4978437;28;20026;-77
2023/12/19 08:31:49;;;;;;;10.40;7.45;;;10.00;80.90;;;;;;4978814;28;20045;-78
2023/12/19 08:34:18;;;;;;;9.68;7.70;;;10.00;80.90;;;;;;4995253;28;20065;-77
2023/12/19 08:36:44;;;;;;;9.07;6.80;;;10.00;80.90;;;;;;4978432;28;20065;-77
2023/12/19 08:39:10;;;;;;;9.20;7.20;;;10.00;80.90;;;;;;4978685;28;20030;-78
2023/12/19 08:41:37;;;;;;;9.55;7.35;;;10.00;80.90;;;;;;4994924;28;20129;-78
2023/12/19 08:44:04;;;;;;;9.50;7.00;;;10.00;80.90;;;;;;4995622;28;20018;-79
2023/12/19 08:46:30;;;;;;;9.85;7.43;;;10.00;80.80;;;;;;4979040;28;20095;-78
2023/12/19 08:48:56;;;;;;;10.82;8.02;;;10.00;80.80;;;;;;4978300;28;20031;-78
2023/12/19 08:51:22;;;;;;;10.18;6.72;;;10.10;80.90;;;;;;4994830;28;20042;-79
2023/12/19 08:53:48;;;;;;;9.60;7.75;;;10.10;80.90;;;;;;4978180;28;20145;-77
2023/12/19 08:56:14;;;;;;;10.02;8.13;;;10.10;80.90;;;;;;4979141;28;20030;-78
2023/12/19 08:58:43;;;;;;;9.38;7.03;;;10.10;80.90;;;;;;4994514;28;20056;-76
2023/12/19 09:01:09;;;;;;;9.43;7.13;;;10.10;80.90;;;;;;4994426;28;20039;-79
2023/12/19 09:03:35;;;;;;;9.05;6.85;;;10.10;80.90;;;;;;4979483;28;20061;-78
2023/12/19 09:06:01;;;;;;;10.05;7.50;;;10.10;80.80;;;;;;4978354;28;20134;-78
2023/12/19 09:08:26;;;;;;;9.95;7.57;;;10.10;80.80;;;;;;4994439;28;20039;-78
2023/12/19 09:10:52;;;;;;;9.43;6.93;;;10.10;81.50;;;;;;4961837;28;20062;-79
2023/12/19 09:13:20;;;;;;;9.73;7.43;;;10.10;80.80;;;;;;4993875;28;20038;-78
2023/12/19 09:15:46;;;;;;;8.98;7.05;;;10.10;80.80;;;;;;4978432;28;20093;-78
2023/12/19 09:18:12;;;;;;;9.45;7.85;;;10.10;81.40;;;;;;4978432;28;20038;-78
2023/12/19 09:20:38;;;;;;;9.55;7.28;;;10.10;80.80;;;;;;4978557;28;20570;-78
2023/12/19 09:23:04;;;;;;;9.95;7.53;;;10.10;80.80;;;;;;4994980;28;20066;-80
2023/12/19 09:25:30;;;;;;;8.70;6.82;;;10.20;80.90;;;;;;4978358;28;20092;-79
2023/12/19 09:27:56;;;;;;;8.50;6.88;;;10.20;80.80;;;;;;4977195;28;20509;-77
2023/12/19 09:30:23;;;;;;;9.35;7.03;;;10.20;80.80;;;;;;4993033;28;20034;-77
2023/12/19 09:32:49;;;;;;;8.40;6.53;;;10.20;80.80;;;;;;4994264;28;20045;-78
2023/12/19 09:35:15;;;;;;;8.43;6.55;;;10.20;80.90;;;;;;4993222;28;20034;-78
2023/12/19 09:37:41;;;;;;;8.68;6.95;;;10.20;80.80;;;;;;4976818;28;20036;-76
2023/12/19 09:40:26;;;;;;;8.85;7.20;;;10.20;80.80;;;;;;4993326;28;20045;-76
2023/12/19 09:42:52;;;;;;;8.10;6.57;;;10.20;80.80;;;;;;4994122;28;20364;-80
2023/12/19 09:45:18;;;;;;;8.23;6.25;;;10.20;80.80;;;;;;4977272;28;20034;-79
2023/12/19 09:47:59;;;;;;;7.30;6.07;;;10.20;80.80;;;;;;4993086;28;20026;-80
2023/12/19 09:50:27;;;;;;;7.25;5.63;;;10.20;80.80;;;;;;4978571;28;20034;-80
2023/12/19 09:52:59;;;;;;;7.20;5.72;;;10.30;80.80;;;;;;4978470;28;20042;-80
2023/12/19 09:55:29;;;;;;;8.05;6.20;;;10.20;80.80;;;;;;4994071;28;20039;-79
2023/12/19 09:57:56;;;;;;;8.15;6.15;;;10.20;80.90;;;;;;4977436;28;20034;-79
2023/12/19 10:00:25;;;;;;;8.85;6.70;;;10.30;80.90;;;;;;4977315;28;20085;-79
2023/12/19 10:02:52;;;;;;;7.80;5.90;;;10.20;80.80;;;;;;4993579;28;20035;-79
2023/12/19 10:05:18;;;;;;;7.72;6.10;;;10.30;80.90;;;;;;4978078;28;20034;-79
2023/12/19 10:07:47;;;;;;;8.23;6.40;;;10.20;80.80;;;;;;4977717;28;20537;-78
2023/12/19 10:10:13;;;;;;;6.15;4.82;;;10.30;80.90;;;;;;4993895;28;20054;-80
2023/12/19 10:12:57;;;;;;;6.50;5.15;;;10.30;80.90;;;;;;4978478;28;20150;-78
2023/12/19 10:15:25;;;;;;;5.95;4.78;;;10.30;80.90;;;;;;4978575;28;20093;-80
2023/12/19 10:18:07;;;;;;;7.10;5.70;;;10.30;80.80;;;;;;4995661;28;20045;-78
2023/12/19 10:20:33;;;;;;;6.28;5.18;;;10.30;80.90;;;;;;4977614;28;20053;-80
2023/12/19 10:23:05;;;;;;;6.88;5.35;;;10.30;80.80;;;;;;4977698;28;20472;-80
2023/12/19 10:25:32;;;;;;;6.03;4.78;;;10.30;80.80;;;;;;4993745;28;20035;-81
2023/12/19 10:28:10;;;;;;;7.47;5.28;;;10.30;80.80;;;;;;4977616;28;20027;-81
2023/12/19 10:30:36;;;;;;;6.78;5.15;;;10.30;80.90;;;;;;4977467;28;20045;-80
2023/12/19 10:33:04;;;;;;;6.65;5.07;;;10.30;80.80;;;;;;4993595;28;20022;-80
2023/12/19 10:35:40;;;;;;;6.00;4.72;;;10.30;80.80;;;;;;4992847;28;20100;-80
2023/12/19 10:38:06;;;;;;;6.43;4.75;;;10.40;80.90;;;;;;4976522;28;20022;-80
2023/12/19 10:40:32;;;;;;;7.10;5.47;;;10.30;80.80;;;;;;4976519;28;20462;-80
2023/12/19 10:42:58;;;;;;;6.45;5.07;;;10.40;80.90;;;;;;4992901;28;20030;-81
2023/12/19 10:45:27;;;;;;;6.70;4.95;;;10.40;80.90;;;;;;4976923;28;20459;-81
2023/12/19 10:47:53;;;;;;;6.45;4.82;;;10.40;80.90;;;;;;4996848;28;20037;-79
2023/12/19 10:50:19;;;;;;;7.03;5.28;;;10.40;80.90;;;;;;4997348;28;20034;-80
2023/12/19 10:52:51;;;;;;;7.28;5.43;;;10.40;80.90;;;;;;4980767;28;20038;-79
2023/12/19 10:55:21;;;;;;;6.55;4.88;;;10.40;80.90;;;;;;4981267;28;20398;-80
2023/12/19 10:57:49;;;;;;;6.25;4.82;;;10.40;80.90;;;;;;4981825;28;20030;-83
2023/12/19 11:00:23;;;;;;;5.50;4.40;;;10.40;80.90;;;;;;4981317;28;20064;-80
2023/12/19 11:03:23;;;;;;;5.60;4.28;;;10.40;80.90;;;;;;4981328;28;20028;-80
2023/12/19 11:05:51;;;;;;;5.88;4.53;;;10.40;80.90;;;;;;4996341;28;20506;-81
2023/12/19 11:08:18;;;;;;;6.28;4.70;;;10.40;80.80;;;;;;5012732;28;20034;-80
2023/12/19 11:10:48;;;;;;;6.05;4.65;;;10.40;80.80;;;;;;4980158;28;20050;-81
2023/12/19 11:13:15;;;;;;;6.60;5.28;;;10.40;80.90;;;;;;4996514;28;20113;-82
2023/12/19 11:15:58;;;;;;;5.90;4.47;;;10.40;80.80;;;;;;4979610;28;20031;-81
2023/12/19 11:18:31;;;;;;;6.13;4.65;;;10.40;80.90;;;;;;4980026;28;20076;-79
2023/12/19 11:21:12;;;;;;;5.20;3.88;;;10.40;80.80;;;;;;4996095;28;20046;-82
2023/12/19 11:24:00;;;;;;;5.35;4.35;;;10.50;81.50;;;;;;4996277;28;20034;-79
2023/12/19 11:26:33;;;;;;;5.55;4.65;;;10.40;80.90;;;;;;4996502;28;20086;-81
2023/12/19 11:28:59;;;;;;;5.72;4.43;;;10.50;80.90;;;;;;4996185;28;20458;-81
2023/12/19 11:31:32;;;;;;;6.10;4.55;;;10.40;80.80;;;;;;4980357;28;20043;-81
2023/12/19 11:34:22;;;;;;;5.47;4.20;;;10.50;80.90;;;;;;4995747;28;20026;-81
2023/12/19 11:37:02;;;;;;;5.43;4.05;;;10.50;81.00;;;;;;4988696;28;20037;-81
2023/12/19 11:39:30;;;;;;;4.95;3.65;;;10.50;80.90;;;;;;4999593;28;20084;-80
2023/12/19 11:41:57;;;;;;;5.32;4.25;;;10.50;80.90;;;;;;4981522;28;20034;-81
2023/12/19 11:44:34;;;;;;;6.28;4.68;;;10.50;80.80;;;;;;4981017;28;20045;-80
2023/12/19 11:47:16;;;;;;;5.63;4.13;;;10.50;80.90;;;;;;4997459;28;20359;-80
2023/12/19 11:49:41;;;;;;;5.85;4.35;;;10.50;80.90;;;;;;4979354;28;20395;-81
2023/12/19 11:52:07;;;;;;;5.95;4.45;;;10.50;80.80;;;;;;4996220;28;20033;-80
2023/12/19 11:54:33;;;;;;;6.35;4.03;;;10.50;80.80;;;;;;4979557;28;20027;-83
2023/12/19 11:57:01;;;;;;;5.50;3.88;;;10.50;80.90;;;;;;4980692;28;20069;-78
2023/12/19 11:59:51;;;;;;;5.82;4.40;;;10.50;80.90;;;;;;4994521;28;20035;-78
2023/12/19 12:02:30;;;;;;;5.05;3.88;;;10.50;80.90;;;;;;4979783;28;20041;-79
2023/12/19 12:05:12;;;;;;;5.18;3.92;;;10.50;80.90;;;;;;4996346;28;20077;-79
2023/12/19 12:07:47;;;;;;;5.40;3.80;;;10.50;80.90;;;;;;4979270;28;20441;-80
2023/12/19 12:10:16;;;;;;;5.82;4.15;;;10.50;80.80;;;;;;4979489;28;20483;-79
2023/12/19 12:12:43;;;;;;;4.55;3.63;;;10.50;80.90;;;;;;4979040;28;20419;-78
2023/12/19 12:15:12;;;;;;;4.60;3.80;;;10.50;80.80;;;;;;4995094;28;20499;-79
2023/12/19 12:17:38;;;;;;;5.35;4.13;;;10.50;80.80;;;;;;4978551;28;20026;-80
2023/12/19 12:20:06;;;;;;;5.47;4.00;;;10.60;80.90;;;;;;4994957;28;20030;-79
2023/12/19 12:22:32;;;;;;;4.57;3.63;;;10.60;80.90;;;;;;4963764;28;20124;-79
2023/12/19 12:24:59;;;;;;;5.20;3.60;;;10.60;80.90;;;;;;4995651;28;20532;-79
2023/12/19 12:27:27;;;;;;;5.15;3.88;;;10.60;80.90;;;;;;4995555;28;20031;-79
2023/12/19 12:29:53;;;;;;;5.32;4.03;;;10.60;80.90;;;;;;4996093;28;20045;-79
2023/12/19 12:32:19;;;;;;;5.07;3.85;;;10.60;80.90;;;;;;4979476;28;20034;-80
2023/12/19 12:34:44;;;;;;;4.47;3.67;;;10.60;80.90;;;;;;4978963;28;20034;-80
2023/12/19 12:37:10;;;;;;;4.85;3.92;;;10.60;80.90;;;;;;4979006;28;20042;-79
2023/12/19 12:39:36;;;;;;;4.70;3.70;;;10.60;80.80;;;;;;4979618;28;20046;-79
2023/12/19 12:42:07;;;;;;;5.15;3.67;;;10.60;80.90;;;;;;4996505;28;20030;-80
2023/12/19 12:44:33;;;;;;;5.45;3.60;;;10.60;80.90;;;;;;4994797;28;20030;-79
2023/12/19 12:47:00;;;;;;;4.50;3.58;;;10.60;80.90;;;;;;4994838;28;20451;-80
2023/12/19 12:49:26;;;;;;;4.35;3.42;;;10.60;80.80;;;;;;4978720;28;20554;-80
2023/12/19 12:51:58;;;;;;;5.22;3.90;;;10.70;80.90;;;;;;4978592;28;20090;-79